• Join FlightAware (Why Join?)
  • Login
  • US Flag 
06:31PM EST


 

Airport Tracker/Info


-or-


 

Live Flight TrackerFlight Track Log ✈ GJS3655 ✈ 24-Jul-2013 ✈ KAUS - KDEN

Flight Track Log - Related Links

Times and Time Zones

All times are in EDT time to prevent confusion due to time zone crossing. See the GJS3655 flight status page for this flight to view local times or setup timezone preferences in your user account.

Time Position Orientation Groundspeed Altitude Reporting Facility
EDT Latitude Longitude Course Direction KTS MPH feet Rate Location/Type
01:24PM 30.1519 -97.8100 311° West 267 307 7,100  Level Houston Center
01:25PM 30.2000 -97.8897 305° West 284 327 9,500 1,740 Climbing Houston Center
01:26PM 30.2561 -97.9736 308° West 305 351 10,800 1,200 Climbing Houston Center
01:27PM 30.5280 -97.9839 291° West  Level FlightAware Approximate
01:27PM 30.3175 -98.0644 308° West 350 403 12,100  Level Houston Center
01:28PM 30.5682 -98.1042 291° West  Level FlightAware Approximate
01:28PM 30.3778 -98.1547 308° West 375 432 13,500  Level Houston Center
01:29PM 30.4325 -98.2639 300° West 388 447 15,000 1,560 Climbing Houston Center
01:30PM 30.4950 -98.3958 299° West 394 453 16,800 1,500 Climbing Houston Center
01:31PM 30.5472 -98.5111 298° West 399 459 18,200 1,200 Climbing Houston Center
01:32PM 30.6011 -98.6267 298° West 403 464 19,400 1,020 Climbing Houston Center
01:33PM 30.6375 -98.7558 288° West 417 480 20,400 960 Climbing Houston Center
01:34PM 30.6744 -98.8886 288° West 423 487 21,500 1,020 Climbing Houston Center
01:35PM 30.7572 -98.9806 316° Northwest 432 497 22,600 900 Climbing Houston Center
01:36PM 30.8664 -99.0364 336° Northwest 423 487 23,400 720 Climbing Houston Center
01:37PM 30.9769 -99.0917 337° Northwest 426 490 24,200 840 Climbing Houston Center
01:38PM 31.1069 -99.1575 337° Northwest 431 496 25,200 780 Climbing Houston Center
01:39PM 31.2078 -99.2075 337° Northwest 434 499 25,800 660 Climbing Houston Center
01:40PM 31.3336 -99.2722 336° Northwest 439 505 26,600 720 Climbing Houston Center
01:41PM 31.4486 -99.3306 337° Northwest 443 510 27,300 720 Climbing Houston Center
01:42PM 31.5639 -99.3886 337° Northwest 445 512 28,100 660 Climbing Houston Center
01:43PM 31.6333 -99.4289 334° Northwest 439 505 28,500 660 Climbing Fort Worth Center
01:44PM 31.7494 -99.4825 339° North 439 505 29,200 660 Climbing Fort Worth Center
01:45PM 31.8611 -99.5414 336° Northwest 439 505 29,900 660 Climbing Fort Worth Center
01:46PM 31.9772 -99.6006 337° Northwest 439 505 30,600 660 Climbing Fort Worth Center
01:47PM 32.0931 -99.6597 337° Northwest 444 511 31,300 660 Climbing Fort Worth Center
01:48PM 32.2089 -99.7214 336° Northwest 444 511 32,000 660 Climbing Fort Worth Center
01:49PM 32.3225 -99.7808 336° Northwest 444 511 32,700 660 Climbing Fort Worth Center
01:50PM 32.4383 -99.8431 336° Northwest 444 511 33,400 660 Climbing Fort Worth Center
01:51PM 32.5475 -99.9100 333° Northwest 444 511 34,100 660 Climbing Fort Worth Center
01:52PM 32.6672 -99.9825 333° Northwest 450 518 34,800 720 Climbing Fort Worth Center
01:53PM 32.7906 -100.0675 330° Northwest 467 537 35,600 720 Climbing Fort Worth Center
01:54PM 32.8997 -100.1350 333° Northwest 467 537 36,300 660 Climbing Fort Worth Center
01:55PM 33.0069 -100.2028 332° Northwest 445 512 37,000 660 Climbing Fort Worth Center
01:56PM 33.1158 -100.2731 332° Northwest 440 506 37,700 480 Climbing Fort Worth Center
01:57PM 33.2228 -100.3436 331° Northwest 435 501 38,000 120 Climbing Fort Worth Center
01:58PM 33.3297 -100.4142 331° Northwest 435 501 38,000  Level Fort Worth Center
01:59PM 33.4364 -100.4850 331° Northwest 435 501 38,000  Level Fort Worth Center
02:00PM 33.5475 -100.5564 332° Northwest 435 501 38,000  Level Fort Worth Center
02:01PM 33.6561 -100.6275 331° Northwest 435 501 38,000  Level Fort Worth Center
02:02PM 33.7650 -100.6989 331° Northwest 435 501 38,000  Level Fort Worth Center
02:03PM 33.8714 -100.7731 330° Northwest 442 509 38,000  Level Fort Worth Center
02:05PM 34.1175 -100.9339 332° Northwest 442 509 38,000  Level Albuquerque Center
02:06PM 34.2236 -101.0075 330° Northwest 442 509 38,000  Level Albuquerque Center
02:07PM 34.3525 -101.0919 332° Northwest 440 506 38,000  Level Albuquerque Center
02:08PM 34.4592 -101.1658 330° Northwest 441 507 38,000  Level Albuquerque Center
02:10PM 34.5653 -101.2378 331° Northwest 438 504 38,000  Level Albuquerque Center
02:11PM 34.6714 -101.3108 330° Northwest 439 505 38,000  Level Albuquerque Center
02:12PM 34.7772 -101.3825 331° Northwest 437 503 38,000  Level Albuquerque Center
02:13PM 34.8831 -101.4550 331° Northwest 436 502 38,000  Level Albuquerque Center
02:14PM 35.0036 -101.5386 330° Northwest 437 503 38,000  Level Albuquerque Center
02:15PM 35.1111 -101.6117 331° Northwest 442 509 38,000  Level Albuquerque Center
02:16PM 35.2303 -101.6914 331° Northwest 437 503 38,000  Level Albuquerque Center
02:17PM 35.3422 -101.7467 338° Northwest 436 502 38,000  Level Albuquerque Center
02:18PM 35.4575 -101.8000 339° North 435 501 38,000  Level Albuquerque Center
02:19PM 35.5719 -101.8542 339° North 437 503 38,000  Level Albuquerque Center
02:20PM 35.6847 -101.9056 340° North 434 499 38,000  Level Albuquerque Center
02:21PM 35.7983 -101.9578 340° North 435 501 38,000  Level Albuquerque Center
02:22PM 35.9114 -102.0106 339° North 434 499 38,000  Level Albuquerque Center
02:23PM 36.0242 -102.0642 339° North 435 501 38,000  Level Albuquerque Center
02:24PM 36.1603 -102.1286 339° North 436 502 38,000  Level Albuquerque Center
02:25PM 36.2731 -102.1828 339° North 435 501 38,000  Level Albuquerque Center
02:26PM 36.3861 -102.2347 340° North 435 501 38,000  Level Albuquerque Center
02:27PM 36.4986 -102.2894 339° North 435 501 38,000  Level Albuquerque Center
02:28PM 36.6125 -102.3419 340° North 436 502 38,000  Level Albuquerque Center
02:29PM 36.7247 -102.3978 338° Northwest 434 499 38,000  Level Albuquerque Center
02:30PM 36.8606 -102.4625 339° North 436 502 38,000  Level Albuquerque Center
02:31PM 36.9625 -102.5097 340° North 438 504 38,000 -60 Level Albuquerque Center
02:32PM 37.0842 -102.5689 339° North 435 501 37,900 -600 Descending Albuquerque Center
02:33PM 37.2117 -102.6308 339° North 438 504 36,800 -960 Descending Albuquerque Center
02:34PM 37.3206 -102.6839 339° North 440 506 36,000 -540 Descending Albuquerque Center
02:35PM 37.3761 -102.7092 340° North 443 510 36,000  Level Denver Center
02:36PM 37.5044 -102.7719 339° North 445 512 36,000  Level Denver Center
02:37PM 37.6172 -102.8108 345° North 441 507 36,000  Level Denver Center
02:38PM 37.7494 -102.8625 343° North 446 513 36,000  Level Denver Center
02:39PM 37.8461 -102.9422 327° Northwest 434 499 36,000  Level Denver Center
02:40PM 37.9597 -103.0344 327° Northwest 435 501 36,000  Level Denver Center
02:41PM 38.0642 -103.1200 327° Northwest 434 499 36,000  Level Denver Center
02:42PM 38.1694 -103.2069 327° Northwest 434 499 36,000  Level Denver Center
02:43PM 38.2669 -103.2861 327° Northwest 435 501 36,000  Level Denver Center
02:44PM 38.3722 -103.3739 327° Northwest 435 501 36,000 -840 Level Denver Center
02:45PM 38.4764 -103.4611 327° Northwest 435 501 34,300 -1,860 Descending Denver Center
02:46PM 38.5878 -103.5547 327° Northwest 430 495 32,200 -1,920 Descending Denver Center
02:47PM 38.6861 -103.6367 327° Northwest 440 506 30,400 -1,860 Descending Denver Center
02:48PM 38.8025 -103.7342 327° Northwest 447 514 28,400 -1,860 Descending Denver Center
02:49PM 38.9064 -103.8236 326° Northwest 447 514 26,600 -1,800 Descending Denver Center
02:50PM 39.0089 -103.9092 327° Northwest 441 507 24,800 -1,680 Descending Denver Center
02:51PM 39.1108 -103.9964 326° Northwest 440 506 23,200 -1,380 Descending Denver Center
02:53PM 39.2169 -104.0872 326° Northwest 379 436 21,700 -1,500 Descending Denver Center
02:54PM 39.3075 -104.1628 327° Northwest 337 388 19,900 -1,740 Descending Denver Center
02:55PM 39.3836 -104.2269 327° Northwest 325 374 18,200 -1,560 Descending Denver Center
02:56PM 39.4658 -104.2928 328° Northwest 323 372 16,700 -1,200 Descending Denver Center
02:57PM 39.5397 -104.3553 327° Northwest 318 366 15,800 -960 Descending Denver Center
02:58PM 39.6200 -104.4186 329° Northwest 306 352 14,800 -780 Descending Denver Center
02:59PM 39.6933 -104.4792 328° Northwest 311 358 14,200 -900 Descending Denver Center
03:00PM 39.7769 -104.5231 338° Northwest 308 354 13,000 -1,320 Descending Denver Center
03:01PM 39.8603 -104.5208 North 301 346 11,500 -960 Descending Denver Center
03:02PM 39.9425 -104.5214 360° North 273 314 11,100 -660 Descending Denver Center
03:03PM 40.0158 -104.5189 North 266 306 10,200 -960 Descending Denver Center
03:04PM 40.0906 -104.5161 North 254 292 9,200 -1,020 Descending Denver Center
03:05PM 40.1361 -104.5581 325° Northwest 242 278 8,200 -1,020 Descending Denver Center
03:06PM 40.1200 -104.6306 254° West 200 230 7,100 -600 Descending Denver Center
03:07PM 40.0769 -104.6683 214° Southwest 186 214 7,000 -60 Descending Denver Center
03:08PM 40.0247 -104.6844 193° South 178 205 7,000  Level Denver Center